sensor_id;sensor_type;location;lat;lon;timestamp;pressure;altitude;pressure_sealevel;temperature;humidity
35307;BME280;21420;52.196;21.416;2023-01-01T00:00:18;100092.77;;;11.86;72.77
35307;BME280;21420;52.196;21.416;2023-01-01T00:02:44;100102.84;;;11.88;72.81
35307;BME280;21420;52.196;21.416;2023-01-01T00:05:11;100102.72;;;11.91;72.87
35307;BME280;21420;52.196;21.416;2023-01-01T00:07:37;100082.83;;;11.94;72.83
35307;BME280;21420;52.196;21.416;2023-01-01T00:10:03;100093.22;;;11.94;72.86
35307;BME280;21420;52.196;21.416;2023-01-01T00:12:48;100096.76;;;11.95;72.86
35307;BME280;21420;52.196;21.416;2023-01-01T00:15:14;100106.59;;;11.96;72.88
35307;BME280;21420;52.196;21.416;2023-01-01T00:17:41;100105.44;;;11.97;72.85
35307;BME280;21420;52.196;21.416;2023-01-01T00:20:08;100110.92;;;11.97;72.85
35307;BME280;21420;52.196;21.416;2023-01-01T00:22:34;100114.70;;;11.98;72.88
35307;BME280;21420;52.196;21.416;2023-01-01T00:25:00;100099.81;;;11.99;72.86
35307;BME280;21420;52.196;21.416;2023-01-01T00:27:27;100090.66;;;12.01;72.90
35307;BME280;21420;52.196;21.416;2023-01-01T00:29:53;100086.55;;;12.01;72.87
35307;BME280;21420;52.196;21.416;2023-01-01T00:32:19;100091.24;;;12.01;72.86
35307;BME280;21420;52.196;21.416;2023-01-01T00:34:45;100086.78;;;12.02;72.90
35307;BME280;21420;52.196;21.416;2023-01-01T00:37:11;100082.67;;;12.02;72.85
35307;BME280;21420;52.196;21.416;2023-01-01T00:39:39;100083.66;;;12.04;72.93
35307;BME280;21420;52.196;21.416;2023-01-01T00:42:06;100086.52;;;12.07;72.94
35307;BME280;21420;52.196;21.416;2023-01-01T00:44:33;100085.59;;;12.10;72.94
35307;BME280;21420;52.196;21.416;2023-01-01T00:46:59;100086.24;;;12.13;72.97
35307;BME280;21420;52.196;21.416;2023-01-01T00:49:25;100089.88;;;12.17;73.00
35307;BME280;21420;52.196;21.416;2023-01-01T00:51:52;100094.07;;;12.20;72.98
35307;BME280;21420;52.196;21.416;2023-01-01T00:54:19;100100.00;;;12.22;73.00
35307;BME280;21420;52.196;21.416;2023-01-01T00:56:45;100101.48;;;12.26;73.00
35307;BME280;21420;52.196;21.416;2023-01-01T00:59:11;100100.77;;;12.29;72.97
35307;BME280;21420;52.196;21.416;2023-01-01T01:01:38;100090.16;;;12.27;72.92
35307;BME280;21420;52.196;21.416;2023-01-01T01:04:06;100105.46;;;12.28;72.89
35307;BME280;21420;52.196;21.416;2023-01-01T01:06:34;100087.48;;;12.31;72.96
35307;BME280;21420;52.196;21.416;2023-01-01T01:09:01;100099.28;;;12.32;72.94
35307;BME280;21420;52.196;21.416;2023-01-01T01:11:28;100093.80;;;12.32;72.91
35307;BME280;21420;52.196;21.416;2023-01-01T01:13:55;100096.75;;;12.33;72.91
35307;BME280;21420;52.196;21.416;2023-01-01T01:16:30;100098.46;;;12.31;72.86
35307;BME280;21420;52.196;21.416;2023-01-01T01:18:59;100089.30;;;12.33;72.89
35307;BME280;21420;52.196;21.416;2023-01-01T01:21:29;100098.33;;;12.34;72.88
35307;BME280;21420;52.196;21.416;2023-01-01T01:23:57;100099.94;;;12.35;72.94
35307;BME280;21420;52.196;21.416;2023-01-01T01:26:29;100096.27;;;12.37;72.94
35307;BME280;21420;52.196;21.416;2023-01-01T01:28:57;100082.88;;;12.35;72.89
35307;BME280;21420;52.196;21.416;2023-01-01T01:31:28;100102.34;;;12.36;72.87
35307;BME280;21420;52.196;21.416;2023-01-01T01:33:56;100102.34;;;12.36;72.93
35307;BME280;21420;52.196;21.416;2023-01-01T01:36:23;100106.45;;;12.52;73.19
35307;BME280;21420;52.196;21.416;2023-01-01T01:38:50;100110.77;;;12.53;72.97
35307;BME280;21420;52.196;21.416;2023-01-01T01:41:19;100104.05;;;12.50;72.84
35307;BME280;21420;52.196;21.416;2023-01-01T01:44:02;100096.53;;;12.47;72.78
35307;BME280;21420;52.196;21.416;2023-01-01T01:46:41;100105.02;;;12.42;72.69
35307;BME280;21420;52.196;21.416;2023-01-01T01:49:14;100095.50;;;12.46;72.84
35307;BME280;21420;52.196;21.416;2023-01-01T01:51:43;100094.13;;;12.46;72.78
35307;BME280;21420;52.196;21.416;2023-01-01T01:54:14;100091.73;;;12.44;72.75
35307;BME280;21420;52.196;21.416;2023-01-01T01:56:51;100092.11;;;12.43;72.74
35307;BME280;21420;52.196;21.416;2023-01-01T01:59:19;100099.31;;;12.41;72.74
35307;BME280;21420;52.196;21.416;2023-01-01T02:01:45;100097.16;;;12.41;72.74
35307;BME280;21420;52.196;21.416;2023-01-01T02:04:12;100091.22;;;12.39;72.66
35307;BME280;21420;52.196;21.416;2023-01-01T02:06:39;100095.09;;;12.38;72.65
35307;BME280;21420;52.196;21.416;2023-01-01T02:09:06;100092.14;;;12.37;72.67
35307;BME280;21420;52.196;21.416;2023-01-01T02:11:33;100088.72;;;12.34;72.65
35307;BME280;21420;52.196;21.416;2023-01-01T02:14:00;100100.08;;;12.32;72.62
35307;BME280;21420;52.196;21.416;2023-01-01T02:16:54;100100.77;;;12.29;72.59
35307;BME280;21420;52.196;21.416;2023-01-01T02:22:33;100098.42;;;12.21;72.55
35307;BME280;21420;52.196;21.416;2023-01-01T02:25:25;100093.52;;;12.21;72.55
35307;BME280;21420;52.196;21.416;2023-01-01T02:30:34;100094.79;;;12.17;72.60
35307;BME280;21420;52.196;21.416;2023-01-01T02:33:07;100106.83;;;12.13;72.52
35307;BME280;21420;52.196;21.416;2023-01-01T02:35:53;100100.09;;;12.10;72.56
35307;BME280;21420;52.196;21.416;2023-01-01T02:40:55;100112.45;;;12.10;72.61
35307;BME280;21420;52.196;21.416;2023-01-01T02:43:24;100102.61;;;12.09;72.63
35307;BME280;21420;52.196;21.416;2023-01-01T02:45:55;100106.64;;;12.05;72.59
35307;BME280;21420;52.196;21.416;2023-01-01T02:51:34;100108.02;;;12.05;72.63
35307;BME280;21420;52.196;21.416;2023-01-01T02:54:45;100110.05;;;12.08;72.67
35307;BME280;21420;52.196;21.416;2023-01-01T03:00:00;100090.94;;;12.12;72.64
35307;BME280;21420;52.196;21.416;2023-01-01T03:06:03;100091.83;;;12.16;72.67
35307;BME280;21420;52.196;21.416;2023-01-01T03:14:28;100093.25;;;12.26;72.63
35307;BME280;21420;52.196;21.416;2023-01-01T03:17:16;100089.61;;;12.22;72.57
35307;BME280;21420;52.196;21.416;2023-01-01T03:19:53;100096.92;;;12.24;72.60
35307;BME280;21420;52.196;21.416;2023-01-01T03:22:28;100087.75;;;12.26;72.60
35307;BME280;21420;52.196;21.416;2023-01-01T03:24:58;100081.48;;;12.25;72.54
35307;BME280;21420;52.196;21.416;2023-01-01T03:27:38;100072.66;;;12.26;72.56
35307;BME280;21420;52.196;21.416;2023-01-01T03:30:04;100075.06;;;12.27;72.57
35307;BME280;21420;52.196;21.416;2023-01-01T03:32:42;100075.57;;;12.33;72.61
35307;BME280;21420;52.196;21.416;2023-01-01T03:35:31;100069.80;;;12.38;72.61
35307;BME280;21420;52.196;21.416;2023-01-01T03:38:11;100061.02;;;12.39;72.54
35307;BME280;21420;52.196;21.416;2023-01-01T03:40:43;100076.28;;;12.46;72.57
35307;BME280;21420;52.196;21.416;2023-01-01T03:43:19;100051.15;;;12.54;72.61
35307;BME280;21420;52.196;21.416;2023-01-01T03:45:49;100040.26;;;12.57;72.60
35307;BME280;21420;52.196;21.416;2023-01-01T03:48:17;100045.75;;;12.57;72.55
35307;BME280;21420;52.196;21.416;2023-01-01T03:50:48;100055.66;;;12.62;72.53
35307;BME280;21420;52.196;21.416;2023-01-01T03:53:41;100068.23;;;12.63;72.47
35307;BME280;21420;52.196;21.416;2023-01-01T03:56:36;100093.19;;;12.64;72.41
35307;BME280;21420;52.196;21.416;2023-01-01T03:59:10;100103.23;;;12.66;72.40
35307;BME280;21420;52.196;21.416;2023-01-01T04:01:55;100102.52;;;12.69;72.42
35307;BME280;21420;52.196;21.416;2023-01-01T04:04:18;100097.91;;;12.73;72.37
35307;BME280;21420;52.196;21.416;2023-01-01T04:06:45;100093.50;;;12.78;72.40
35307;BME280;21420;52.196;21.416;2023-01-01T04:09:19;100089.03;;;12.80;72.36
35307;BME280;21420;52.196;21.416;2023-01-01T04:11:44;100108.57;;;12.84;72.37
35307;BME280;21420;52.196;21.416;2023-01-01T04:17:01;100089.28;;;12.90;72.31
35307;BME280;21420;52.196;21.416;2023-01-01T04:19:28;100096.59;;;12.93;72.25
35307;BME280;21420;52.196;21.416;2023-01-01T04:21:54;100091.51;;;12.95;72.23
35307;BME280;21420;52.196;21.416;2023-01-01T04:24:21;100102.16;;;12.96;72.17
35307;BME280;21420;52.196;21.416;2023-01-01T04:26:49;100117.50;;;12.97;72.15
35307;BME280;21420;52.196;21.416;2023-01-01T04:29:17;100121.63;;;12.97;72.14
35307;BME280;21420;52.196;21.416;2023-01-01T04:31:43;100131.24;;;12.97;72.07
35307;BME280;21420;52.196;21.416;2023-01-01T04:34:10;100116.19;;;13.01;72.08
35307;BME280;21420;52.196;21.416;2023-01-01T04:36:36;100127.19;;;13.01;72.05
35307;BME280;21420;52.196;21.416;2023-01-01T04:39:03;100118.73;;;13.00;71.99
35307;BME280;21420;52.196;21.416;2023-01-01T04:41:29;100122.06;;;12.99;71.99
35307;BME280;21420;52.196;21.416;2023-01-01T04:43:56;100133.70;;;13.02;72.01
35307;BME280;21420;52.196;21.416;2023-01-01T04:46:23;100129.23;;;13.04;72.01
35307;BME280;21420;52.196;21.416;2023-01-01T04:48:49;100138.13;;;13.07;72.00
35307;BME280;21420;52.196;21.416;2023-01-01T04:51:17;100138.22;;;13.10;71.99
35307;BME280;21420;52.196;21.416;2023-01-01T04:53:44;100137.00;;;13.18;72.05
35307;BME280;21420;52.196;21.416;2023-01-01T04:56:12;100145.05;;;13.26;72.10
35307;BME280;21420;52.196;21.416;2023-01-01T04:58:41;100145.92;;;13.30;72.06
35307;BME280;21420;52.196;21.416;2023-01-01T05:01:13;100130.04;;;13.40;72.09
35307;BME280;21420;52.196;21.416;2023-01-01T05:03:38;100127.58;;;13.44;72.04
35307;BME280;21420;52.196;21.416;2023-01-01T05:06:07;100141.83;;;13.50;72.00
35307;BME280;21420;52.196;21.416;2023-01-01T05:08:36;100139.72;;;13.53;71.96
35307;BME280;21420;52.196;21.416;2023-01-01T05:11:10;100139.45;;;13.58;71.97
35307;BME280;21420;52.196;21.416;2023-01-01T05:13:39;100140.68;;;13.61;71.91
35307;BME280;21420;52.196;21.416;2023-01-01T05:16:10;100149.86;;;13.68;71.92
35307;BME280;21420;52.196;21.416;2023-01-01T05:18:40;100142.71;;;13.73;71.90
35307;BME280;21420;52.196;21.416;2023-01-01T05:21:10;100148.77;;;13.73;71.72
35307;BME280;21420;52.196;21.416;2023-01-01T05:23:38;100155.66;;;13.73;71.67
35307;BME280;21420;52.196;21.416;2023-01-01T05:26:10;100140.95;;;13.75;71.64
35307;BME280;21420;52.196;21.416;2023-01-01T05:28:38;100144.73;;;13.77;71.63
35307;BME280;21420;52.196;21.416;2023-01-01T05:31:07;100137.70;;;13.79;71.59
35307;BME280;21420;52.196;21.416;2023-01-01T05:33:35;100131.02;;;13.80;71.53
35307;BME280;21420;52.196;21.416;2023-01-01T05:36:03;100130.23;;;13.80;71.44
35307;BME280;21420;52.196;21.416;2023-01-01T05:38:31;100133.14;;;13.77;71.38
35307;BME280;21420;52.196;21.416;2023-01-01T05:40:58;100135.53;;;13.79;71.35
35307;BME280;21420;52.196;21.416;2023-01-01T05:43:24;100143.00;;;13.78;71.26
35307;BME280;21420;52.196;21.416;2023-01-01T05:45:58;100148.98;;;13.84;71.39
35307;BME280;21420;52.196;21.416;2023-01-01T05:48:26;100142.19;;;13.87;71.34
35307;BME280;21420;52.196;21.416;2023-01-01T05:50:53;100145.78;;;13.91;71.25
35307;BME280;21420;52.196;21.416;2023-01-01T05:53:19;100157.81;;;13.93;71.26
35307;BME280;21420;52.196;21.416;2023-01-01T05:55:52;100154.86;;;13.92;71.14
35307;BME280;21420;52.196;21.416;2023-01-01T05:58:19;100159.55;;;13.91;71.10
35307;BME280;21420;52.196;21.416;2023-01-01T06:00:46;100153.48;;;13.92;71.01
35307;BME280;21420;52.196;21.416;2023-01-01T06:03:12;100169.92;;;13.88;70.93
35307;BME280;21420;52.196;21.416;2023-01-01T06:05:38;100157.68;;;13.86;70.86
35307;BME280;21420;52.196;21.416;2023-01-01T06:08:04;100171.44;;;13.86;70.83
35307;BME280;21420;52.196;21.416;2023-01-01T06:10:31;100173.55;;;13.83;70.79
35307;BME280;21420;52.196;21.416;2023-01-01T06:12:59;100182.60;;;13.83;70.76
35307;BME280;21420;52.196;21.416;2023-01-01T06:15:25;100168.55;;;13.79;70.73
35307;BME280;21420;52.196;21.416;2023-01-01T06:17:52;100165.56;;;13.78;70.70
35307;BME280;21420;52.196;21.416;2023-01-01T06:20:19;100171.45;;;13.76;70.62
35307;BME280;21420;52.196;21.416;2023-01-01T06:22:45;100184.55;;;13.73;70.59
35307;BME280;21420;52.196;21.416;2023-01-01T06:25:12;100196.87;;;13.69;70.53
35307;BME280;21420;52.196;21.416;2023-01-01T06:27:38;100183.46;;;13.68;70.52
35307;BME280;21420;52.196;21.416;2023-01-01T06:30:05;100191.52;;;13.67;70.49
35307;BME280;21420;52.196;21.416;2023-01-01T06:32:32;100196.14;;;13.63;70.47
35307;BME280;21420;52.196;21.416;2023-01-01T06:34:58;100198.22;;;13.60;70.35
35307;BME280;21420;52.196;21.416;2023-01-01T06:37:26;100195.55;;;13.53;70.34
35307;BME280;21420;52.196;21.416;2023-01-01T06:39:53;100195.11;;;13.51;70.37
35307;BME280;21420;52.196;21.416;2023-01-01T06:42:19;100197.28;;;13.52;70.39
35307;BME280;21420;52.196;21.416;2023-01-01T06:44:45;100195.11;;;13.51;70.33
35307;BME280;21420;52.196;21.416;2023-01-01T06:47:11;100192.06;;;13.47;70.28
35307;BME280;21420;52.196;21.416;2023-01-01T06:49:37;100211.81;;;13.43;70.24
35307;BME280;21420;52.196;21.416;2023-01-01T06:52:03;100212.31;;;13.39;70.19
35307;BME280;21420;52.196;21.416;2023-01-01T06:54:30;100205.92;;;13.35;70.18
35307;BME280;21420;52.196;21.416;2023-01-01T06:56:56;100206.95;;;13.36;70.24
35307;BME280;21420;52.196;21.416;2023-01-01T06:59:22;100228.95;;;13.36;70.24
35307;BME280;21420;52.196;21.416;2023-01-01T07:01:48;100218.68;;;13.33;70.19
35307;BME280;21420;52.196;21.416;2023-01-01T07:04:15;100205.42;;;13.29;70.13
35307;BME280;21420;52.196;21.416;2023-01-01T07:06:41;100207.84;;;13.24;70.10
35307;BME280;21420;52.196;21.416;2023-01-01T07:09:08;100205.64;;;13.24;70.12
35307;BME280;21420;52.196;21.416;2023-01-01T07:11:34;100201.66;;;13.21;70.10
35307;BME280;21420;52.196;21.416;2023-01-01T07:14:01;100201.90;;;13.22;70.07
35307;BME280;21420;52.196;21.416;2023-01-01T07:16:28;100205.44;;;13.23;70.07
35307;BME280;21420;52.196;21.416;2023-01-01T07:18:54;100210.94;;;13.23;70.03
35307;BME280;21420;52.196;21.416;2023-01-01T07:21:27;100222.59;;;13.26;70.09
35307;BME280;21420;52.196;21.416;2023-01-01T07:24:03;100232.20;;;13.26;70.02
35307;BME280;21420;52.196;21.416;2023-01-01T07:26:31;100227.86;;;13.31;70.09
35307;BME280;21420;52.196;21.416;2023-01-01T07:28:59;100214.80;;;13.53;70.49
35307;BME280;21420;52.196;21.416;2023-01-01T07:31:25;100214.45;;;13.84;70.68
35307;BME280;21420;52.196;21.416;2023-01-01T07:33:52;100220.49;;;14.42;71.25
35307;BME280;21420;52.196;21.416;2023-01-01T07:36:18;100228.27;;;14.92;71.20
35307;BME280;21420;52.196;21.416;2023-01-01T07:38:44;100235.98;;;15.19;70.73
35307;BME280;21420;52.196;21.416;2023-01-01T07:41:10;100240.95;;;15.33;70.38
35307;BME280;21420;52.196;21.416;2023-01-01T07:43:36;100244.69;;;15.35;70.01
35307;BME280;21420;52.196;21.416;2023-01-01T07:46:03;100238.11;;;15.16;69.45
35307;BME280;21420;52.196;21.416;2023-01-01T07:48:29;100253.78;;;14.99;69.27
35307;BME280;21420;52.196;21.416;2023-01-01T07:50:56;100251.61;;;14.98;69.54
35307;BME280;21420;52.196;21.416;2023-01-01T07:53:22;100251.81;;;15.36;69.95
35307;BME280;21420;52.196;21.416;2023-01-01T07:55:48;100244.59;;;15.54;69.80
35307;BME280;21420;52.196;21.416;2023-01-01T07:58:16;100266.39;;;15.90;70.14
35307;BME280;21420;52.196;21.416;2023-01-01T08:00:45;100253.95;;;16.57;70.59
35307;BME280;21420;52.196;21.416;2023-01-01T08:03:13;100270.19;;;17.03;70.11
35307;BME280;21420;52.196;21.416;2023-01-01T08:05:40;100263.95;;;17.41;70.06
35307;BME280;21420;52.196;21.416;2023-01-01T08:08:07;100257.22;;;17.70;69.52
35307;BME280;21420;52.196;21.416;2023-01-01T08:10:35;100282.70;;;18.01;69.63
35307;BME280;21420;52.196;21.416;2023-01-01T08:13:04;100270.16;;;18.32;69.44
35307;BME280;21420;52.196;21.416;2023-01-01T08:15:31;100277.58;;;18.63;69.08
35307;BME280;21420;52.196;21.416;2023-01-01T08:18:00;100263.58;;;18.87;68.88
35307;BME280;21420;52.196;21.416;2023-01-01T08:20:28;100273.67;;;19.00;68.48
35307;BME280;21420;52.196;21.416;2023-01-01T08:22:55;100275.86;;;19.11;68.18
35307;BME280;21420;52.196;21.416;2023-01-01T08:25:23;100281.41;;;19.29;68.11
35307;BME280;21420;52.196;21.416;2023-01-01T08:27:50;100288.34;;;19.40;67.72
35307;BME280;21420;52.196;21.416;2023-01-01T08:30:16;100290.50;;;19.47;67.50
35307;BME280;21420;52.196;21.416;2023-01-01T08:32:43;100296.24;;;19.52;67.42
35307;BME280;21420;52.196;21.416;2023-01-01T08:35:09;100276.59;;;19.76;67.66
35307;BME280;21420;52.196;21.416;2023-01-01T08:37:35;100266.31;;;20.17;67.66
35307;BME280;21420;52.196;21.416;2023-01-01T08:40:02;100299.37;;;20.45;67.39
35307;BME280;21420;52.196;21.416;2023-01-01T08:42:29;100305.42;;;20.69;66.96
35307;BME280;21420;52.196;21.416;2023-01-01T08:44:55;100306.70;;;20.84;66.89
35307;BME280;21420;52.196;21.416;2023-01-01T08:47:24;100297.70;;;20.91;66.58
35307;BME280;21420;52.196;21.416;2023-01-01T08:49:52;100287.73;;;21.20;66.62
35307;BME280;21420;52.196;21.416;2023-01-01T08:52:19;100316.63;;;21.14;66.03
35307;BME280;21420;52.196;21.416;2023-01-01T08:54:45;100320.36;;;21.19;65.77
35307;BME280;21420;52.196;21.416;2023-01-01T08:57:12;100324.58;;;21.42;66.09
35307;BME280;21420;52.196;21.416;2023-01-01T08:59:38;100315.22;;;21.44;65.60
35307;BME280;21420;52.196;21.416;2023-01-01T09:02:05;100309.09;;;21.34;65.16
35307;BME280;21420;52.196;21.416;2023-01-01T09:04:32;100320.92;;;21.23;65.34
35307;BME280;21420;52.196;21.416;2023-01-01T09:06:59;100300.78;;;21.08;64.94
35307;BME280;21420;52.196;21.416;2023-01-01T09:09:25;100314.55;;;21.26;65.42
35307;BME280;21420;52.196;21.416;2023-01-01T09:11:53;100310.84;;;21.17;64.74
35307;BME280;21420;52.196;21.416;2023-01-01T09:14:21;100323.73;;;20.93;64.31
35307;BME280;21420;52.196;21.416;2023-01-01T09:16:47;100314.31;;;20.32;63.99
35307;BME280;21420;52.196;21.416;2023-01-01T09:19:14;100304.16;;;19.79;63.93
35307;BME280;21420;52.196;21.416;2023-01-01T09:21:40;100312.53;;;19.39;64.31
35307;BME280;21420;52.196;21.416;2023-01-01T09:24:06;100319.06;;;19.08;64.29
35307;BME280;21420;52.196;21.416;2023-01-01T09:26:33;100320.02;;;18.81;64.42
35307;BME280;21420;52.196;21.416;2023-01-01T09:28:59;100342.33;;;18.61;64.47
35307;BME280;21420;52.196;21.416;2023-01-01T09:31:25;100324.63;;;18.41;64.59
35307;BME280;21420;52.196;21.416;2023-01-01T09:33:52;100316.68;;;18.29;64.69
35307;BME280;21420;52.196;21.416;2023-01-01T09:36:29;100343.14;;;18.19;64.87
35307;BME280;21420;52.196;21.416;2023-01-01T09:38:57;100337.79;;;18.13;64.84
35307;BME280;21420;52.196;21.416;2023-01-01T09:41:42;100337.34;;;18.07;64.91
35307;BME280;21420;52.196;21.416;2023-01-01T09:47:40;100346.82;;;17.99;64.96
35307;BME280;21420;52.196;21.416;2023-01-01T09:50:18;100335.33;;;17.97;64.98
35307;BME280;21420;52.196;21.416;2023-01-01T09:53:06;100327.81;;;17.98;64.98
35307;BME280;21420;52.196;21.416;2023-01-01T09:55:43;100329.98;;;17.95;65.04
35307;BME280;21420;52.196;21.416;2023-01-01T09:58:14;100324.66;;;17.99;65.07
35307;BME280;21420;52.196;21.416;2023-01-01T10:00:45;100330.83;;;18.06;65.09
35307;BME280;21420;52.196;21.416;2023-01-01T10:06:24;100327.91;;;18.19;65.17
35307;BME280;21420;52.196;21.416;2023-01-01T10:09:26;100325.27;;;18.51;65.24
35307;BME280;21420;52.196;21.416;2023-01-01T10:11:58;100325.27;;;18.51;65.24
35307;BME280;21420;52.196;21.416;2023-01-01T10:14:36;100329.88;;;18.64;64.97
35307;BME280;21420;52.196;21.416;2023-01-01T10:17:26;100317.21;;;18.74;64.98
35307;BME280;21420;52.196;21.416;2023-01-01T10:19:56;100314.28;;;18.84;64.94
35307;BME280;21420;52.196;21.416;2023-01-01T10:22:26;100328.17;;;18.87;64.70
35307;BME280;21420;52.196;21.416;2023-01-01T10:25:26;100317.07;;;18.87;64.50
35307;BME280;21420;52.196;21.416;2023-01-01T10:30:28;100319.05;;;18.90;64.51
35307;BME280;21420;52.196;21.416;2023-01-01T10:32:56;100331.34;;;18.89;64.35
35307;BME280;21420;52.196;21.416;2023-01-01T10:38:02;100311.31;;;18.86;64.20
35307;BME280;21420;52.196;21.416;2023-01-01T10:40:29;100318.64;;;18.81;63.99
35307;BME280;21420;52.196;21.416;2023-01-01T10:42:59;100313.27;;;18.82;64.09
35307;BME280;21420;52.196;21.416;2023-01-01T10:45:31;100303.98;;;18.88;63.99
35307;BME280;21420;52.196;21.416;2023-01-01T10:48:23;100330.36;;;18.99;64.11
35307;BME280;21420;52.196;21.416;2023-01-01T10:51:02;100315.30;;;19.25;64.16
35307;BME280;21420;52.196;21.416;2023-01-01T10:53:39;100300.02;;;19.71;64.73
35307;BME280;21420;52.196;21.416;2023-01-01T10:56:20;100294.03;;;20.38;64.64
35307;BME280;21420;52.196;21.416;2023-01-01T10:58:54;100299.41;;;21.00;64.92
35307;BME280;21420;52.196;21.416;2023-01-01T11:01:24;100293.31;;;21.65;64.59
35307;BME280;21420;52.196;21.416;2023-01-01T11:06:34;100301.87;;;21.85;63.38
35307;BME280;21420;52.196;21.416;2023-01-01T11:09:22;100300.30;;;21.99;63.58
35307;BME280;21420;52.196;21.416;2023-01-01T11:12:02;100291.52;;;22.35;63.45
35307;BME280;21420;52.196;21.416;2023-01-01T11:17:09;100281.64;;;23.00;63.02
35307;BME280;21420;52.196;21.416;2023-01-01T11:19:38;100274.00;;;23.04;62.69
35307;BME280;21420;52.196;21.416;2023-01-01T11:22:06;100280.97;;;23.28;62.62
35307;BME280;21420;52.196;21.416;2023-01-01T11:24:33;100262.70;;;23.23;62.17
35307;BME280;21420;52.196;21.416;2023-01-01T11:27:21;100277.41;;;23.16;61.93
35307;BME280;21420;52.196;21.416;2023-01-01T11:29:49;100283.59;;;23.27;61.79
35307;BME280;21420;52.196;21.416;2023-01-01T11:32:23;100277.21;;;23.38;61.90
35307;BME280;21420;52.196;21.416;2023-01-01T11:35:03;100301.42;;;23.57;61.73
35307;BME280;21420;52.196;21.416;2023-01-01T11:37:36;100289.64;;;23.69;61.85
35307;BME280;21420;52.196;21.416;2023-01-01T11:40:06;100288.86;;;24.00;61.99
35307;BME280;21420;52.196;21.416;2023-01-01T11:42:35;100284.05;;;24.21;61.67
35307;BME280;21420;52.196;21.416;2023-01-01T11:45:20;100279.28;;;24.09;60.90
35307;BME280;21420;52.196;21.416;2023-01-01T11:47:56;100266.56;;;23.97;60.56
35307;BME280;21420;52.196;21.416;2023-01-01T11:50:27;100276.64;;;23.59;60.23
35307;BME280;21420;52.196;21.416;2023-01-01T11:52:56;100272.27;;;23.46;60.21
35307;BME280;21420;52.196;21.416;2023-01-01T11:55:41;100273.16;;;23.31;60.24
35307;BME280;21420;52.196;21.416;2023-01-01T12:00:42;100283.41;;;23.14;60.09
35307;BME280;21420;52.196;21.416;2023-01-01T12:08:46;100293.44;;;23.35;60.28
35307;BME280;21420;52.196;21.416;2023-01-01T12:11:37;100275.56;;;23.41;60.13
35307;BME280;21420;52.196;21.416;2023-01-01T12:17:46;100277.03;;;23.14;59.61
35307;BME280;21420;52.196;21.416;2023-01-01T12:20:32;100272.23;;;23.02;59.24
35307;BME280;21420;52.196;21.416;2023-01-01T12:23:00;100268.81;;;22.64;58.97
35307;BME280;21420;52.196;21.416;2023-01-01T12:25:35;100273.24;;;22.61;59.38
35307;BME280;21420;52.196;21.416;2023-01-01T12:29:01;100288.70;;;22.54;59.32
35307;BME280;21420;52.196;21.416;2023-01-01T12:34:03;100286.66;;;21.55;58.49
35307;BME280;21420;52.196;21.416;2023-01-01T12:36:50;100284.34;;;21.20;58.58
35307;BME280;21420;52.196;21.416;2023-01-01T12:42:38;100295.41;;;20.79;58.87
35307;BME280;21420;52.196;21.416;2023-01-01T12:50:59;100288.63;;;20.80;59.22
35307;BME280;21420;52.196;21.416;2023-01-01T12:53:46;100298.13;;;20.56;58.74
35307;BME280;21420;52.196;21.416;2023-01-01T12:56:56;100294.25;;;20.32;58.72
35307;BME280;21420;52.196;21.416;2023-01-01T12:59:31;100303.69;;;20.02;58.61
35307;BME280;21420;52.196;21.416;2023-01-01T13:02:02;100310.12;;;19.66;58.60
35307;BME280;21420;52.196;21.416;2023-01-01T13:04:35;100308.76;;;19.48;58.72
35307;BME280;21420;52.196;21.416;2023-01-01T13:07:07;100301.82;;;19.38;58.81
35307;BME280;21420;52.196;21.416;2023-01-01T13:09:36;100318.48;;;19.30;58.93
35307;BME280;21420;52.196;21.416;2023-01-01T13:12:16;100305.41;;;19.27;59.05
35307;BME280;21420;52.196;21.416;2023-01-01T13:14:45;100314.91;;;19.16;58.95
35307;BME280;21420;52.196;21.416;2023-01-01T13:17:21;100309.16;;;18.97;58.89
35307;BME280;21420;52.196;21.416;2023-01-01T13:20:14;100316.05;;;18.82;58.85
35307;BME280;21420;52.196;21.416;2023-01-01T13:22:39;100328.48;;;18.64;58.83
35307;BME280;21420;52.196;21.416;2023-01-01T13:33:28;100336.75;;;18.08;58.97
35307;BME280;21420;52.196;21.416;2023-01-01T13:38:49;100337.47;;;17.91;59.01
35307;BME280;21420;52.196;21.416;2023-01-01T13:49:39;100320.41;;;17.57;59.11
35307;BME280;21420;52.196;21.416;2023-01-01T13:55:17;100325.67;;;17.45;59.21
35307;BME280;21420;52.196;21.416;2023-01-01T14:03:21;100340.51;;;17.23;59.14
35307;BME280;21420;52.196;21.416;2023-01-01T14:05:58;100341.02;;;17.15;59.13
35307;BME280;21420;52.196;21.416;2023-01-01T14:08:34;100352.98;;;17.06;59.08
35307;BME280;21420;52.196;21.416;2023-01-01T14:11:14;100360.20;;;16.97;59.10
35307;BME280;21420;52.196;21.416;2023-01-01T14:13:43;100360.68;;;16.86;59.06
35307;BME280;21420;52.196;21.416;2023-01-01T14:16:11;100356.36;;;16.72;59.09
35307;BME280;21420;52.196;21.416;2023-01-01T14:18:50;100368.50;;;16.63;59.10
35307;BME280;21420;52.196;21.416;2023-01-01T14:21:20;100368.77;;;16.51;59.07
35307;BME280;21420;52.196;21.416;2023-01-01T14:23:56;100369.00;;;16.39;59.12
35307;BME280;21420;52.196;21.416;2023-01-01T14:26:26;100365.69;;;16.26;59.12
35307;BME280;21420;52.196;21.416;2023-01-01T14:28:59;100374.20;;;16.14;59.16
35307;BME280;21420;52.196;21.416;2023-01-01T14:31:30;100378.61;;;16.05;59.19
35307;BME280;21420;52.196;21.416;2023-01-01T14:36:54;100403.75;;;15.83;59.28